Time,TemperatureF,DewpointF,PressureIn,WindDirection,WindDirectionDegrees,WindSpeedMPH,WindSpeedGustMPH,Humidity,HourlyPrecipIn,Conditions,Clouds,dailyrainin,SolarRadiationWatts/m^2,SoftwareType,DateUTC
2013-09-24 00:00:00,55.1,54.3,30.01,SSW,199,0.0,3.0,97,0.00,,---,0.29,0.00,VWS V14.01,2013-09-24 07:00:00,
2013-09-24 00:01:00,54.6,53.8,30.00,SSW,199,0.0,0.0,97,0.01,,---,0.00,0.00,VWS V14.01,2013-09-24 07:01:00,
2013-09-24 00:06:00,54.6,53.8,30.00,SSW,199,0.0,0.0,97,0.01,,---,0.00,0.00,VWS V14.01,2013-09-24 07:06:00,
2013-09-24 00:10:00,55.0,54.2,30.01,SSW,199,0.0,3.0,97,0.00,,---,0.29,0.00,VWS V14.01,2013-09-24 07:10:00,
2013-09-24 00:11:00,54.5,53.7,30.01,SSW,199,0.0,0.0,97,0.01,,---,0.00,0.00,VWS V14.01,2013-09-24 07:11:00,
2013-09-24 00:16:00,54.6,53.8,30.00,SSW,199,0.0,0.0,97,0.01,,---,0.00,0.00,VWS V14.01,2013-09-24 07:16:00,
2013-09-24 00:20:00,55.0,54.2,30.01,SSW,199,0.0,2.0,97,0.00,,---,0.29,0.00,VWS V14.01,2013-09-24 07:20:00,
2013-09-24 00:21:00,54.6,53.8,30.00,SSW,199,0.0,0.0,97,0.01,,---,0.00,0.00,VWS V14.01,2013-09-24 07:21:00,
2013-09-24 00:26:00,54.6,53.8,30.01,SSW,199,0.0,0.0,97,0.01,,---,0.00,0.00,VWS V14.01,2013-09-24 07:26:00,
2013-09-24 00:30:00,54.9,54.1,30.01,SSW,199,0.0,0.0,97,0.01,,---,0.30,0.00,VWS V14.01,2013-09-24 07:30:00,
2013-09-24 00:31:00,54.6,53.8,30.01,SSW,199,0.0,0.0,97,0.00,,---,0.00,0.00,VWS V14.01,2013-09-24 07:31:00,
2013-09-24 00:36:00,54.5,53.7,30.00,SSW,199,0.0,0.0,97,0.00,,---,0.00,0.00,VWS V14.01,2013-09-24 07:36:00,
2013-09-24 00:40:00,54.8,54.0,30.00,SSW,199,0.0,0.0,97,0.01,,---,0.30,0.00,VWS V14.01,2013-09-24 07:40:00,
2013-09-24 00:41:00,54.5,53.7,30.00,SSW,199,0.0,0.0,97,0.00,,---,0.00,0.00,VWS V14.01,2013-09-24 07:41:00,
2013-09-24 00:46:00,54.5,53.7,30.00,SSW,199,0.0,0.0,97,0.00,,---,0.00,0.00,VWS V14.01,2013-09-24 07:46:00,
2013-09-24 00:50:00,54.7,53.9,30.01,SSW,199,0.0,0.0,97,0.01,,---,0.30,0.00,VWS V14.01,2013-09-24 07:50:00,
2013-09-24 00:51:00,54.5,53.7,30.00,SSW,199,0.0,0.0,97,0.00,,---,0.00,0.00,VWS V14.01,2013-09-24 07:51:00,
2013-09-24 00:56:00,54.5,53.7,30.00,SSW,199,0.0,0.0,97,0.00,,---,0.00,0.00,VWS V14.01,2013-09-24 07:56:00,
2013-09-24 01:00:00,54.6,53.8,30.00,SSW,199,0.0,0.0,97,0.01,,---,0.30,0.00,VWS V14.01,2013-09-24 08:00:00,
2013-09-24 01:01:00,54.6,53.8,30.00,SSW,199,0.0,0.0,97,0.01,,---,0.01,0.00,VWS V14.01,2013-09-24 08:01:00,
2013-09-24 01:06:00,54.5,53.7,29.99,SSW,199,0.0,0.0,97,0.01,,---,0.01,0.00,VWS V14.01,2013-09-24 08:06:00,
2013-09-24 01:10:00,54.5,53.7,30.00,SSW,199,0.0,0.0,97,0.01,,---,0.00,0.00,VWS V14.01,2013-09-24 08:10:00,
2013-09-24 01:11:00,54.5,53.7,29.99,SSW,199,0.0,0.0,97,0.01,,---,0.01,0.00,VWS V14.01,2013-09-24 08:11:00,
2013-09-24 01:16:00,54.5,53.7,29.99,SSW,199,0.0,0.0,97,0.01,,---,0.01,0.00,VWS V14.01,2013-09-24 08:16:00,
2013-09-24 01:20:00,54.6,53.8,30.00,SSW,199,0.0,0.0,97,0.01,,---,0.00,0.00,VWS V14.01,2013-09-24 08:20:00,
2013-09-24 01:21:00,54.5,53.7,29.99,SSW,199,0.0,0.0,97,0.01,,---,0.01,0.00,VWS V14.01,2013-09-24 08:21:00,
2013-09-24 01:26:00,54.5,53.7,29.98,SSW,199,0.0,0.0,97,0.01,,---,0.01,0.00,VWS V14.01,2013-09-24 08:26:00,
2013-09-24 01:30:00,54.5,53.7,30.00,SSW,199,0.0,0.0,97,0.01,,---,0.00,0.00,VWS V14.01,2013-09-24 08:30:00,
2013-09-24 01:31:00,54.5,53.7,29.99,SSW,199,0.0,0.0,97,0.01,,---,0.01,0.00,VWS V14.01,2013-09-24 08:31:00,
2013-09-24 01:36:00,54.5,53.7,29.98,SSW,199,0.0,0.0,97,0.01,,---,0.01,0.00,VWS V14.01,2013-09-24 08:36:00,
2013-09-24 01:40:00,54.5,53.7,30.01,SSW,199,0.0,0.0,97,0.00,,---,0.00,0.00,VWS V14.01,2013-09-24 08:40:00,
2013-09-24 01:41:00,54.5,53.7,29.98,SSW,199,0.0,0.0,97,0.01,,---,0.01,0.00,VWS V14.01,2013-09-24 08:41:00,
2013-09-24 01:46:00,54.5,53.7,29.98,SSW,199,0.0,0.0,97,0.02,,---,0.02,0.00,VWS V14.01,2013-09-24 08:46:00,
2013-09-24 01:50:00,54.5,53.7,30.00,SSW,199,0.0,0.0,97,0.00,,---,0.00,0.00,VWS V14.01,2013-09-24 08:50:00,
2013-09-24 01:51:00,54.5,53.7,29.99,SSW,199,0.0,0.0,97,0.02,,---,0.02,0.00,VWS V14.01,2013-09-24 08:51:00,
2013-09-24 01:56:00,54.5,53.7,29.99,SSW,199,0.0,0.0,97,0.03,,---,0.03,0.00,VWS V14.01,2013-09-24 08:56:00,
2013-09-24 02:00:00,54.5,53.7,29.99,SSW,199,0.0,0.0,97,0.01,,---,0.01,0.00,VWS V14.01,2013-09-24 09:00:00,
2013-09-24 02:01:00,54.5,53.7,29.99,SSW,199,0.0,0.0,97,0.03,,---,0.04,0.00,VWS V14.01,2013-09-24 09:01:00,
2013-09-24 02:06:00,54.4,53.6,29.99,SSW,199,0.0,1.0,97,0.03,,---,0.04,0.00,VWS V14.01,2013-09-24 09:06:00,
2013-09-24 02:10:00,54.5,53.7,29.99,SSW,199,0.0,0.0,97,0.01,,---,0.01,0.00,VWS V14.01,2013-09-24 09:10:00,
2013-09-24 02:11:00,54.4,53.6,29.99,SSW,199,2.0,2.0,97,0.05,,---,0.06,0.00,VWS V14.01,2013-09-24 09:11:00,
2013-09-24 02:16:00,54.3,53.5,29.98,SSW,199,0.0,2.0,97,0.07,,---,0.08,0.00,VWS V14.01,2013-09-24 09:16:00,
2013-09-24 02:20:00,54.5,53.7,29.99,SSW,199,0.0,0.0,97,0.01,,---,0.01,0.00,VWS V14.01,2013-09-24 09:20:00,
2013-09-24 02:21:00,54.0,53.2,29.98,SSW,199,0.0,0.0,97,0.07,,---,0.08,0.00,VWS V14.01,2013-09-24 09:21:00,
2013-09-24 02:26:00,53.7,52.9,29.98,SSW,199,0.0,0.0,97,0.07,,---,0.08,0.00,VWS V14.01,2013-09-24 09:26:00,
2013-09-24 02:30:00,54.5,53.7,29.98,SSW,199,0.0,0.0,97,0.01,,---,0.01,0.00,VWS V14.01,2013-09-24 09:30:00,
2013-09-24 02:31:00,53.6,52.8,29.99,SSW,199,0.0,0.0,97,0.08,,---,0.09,0.00,VWS V14.01,2013-09-24 09:31:00,
2013-09-24 02:36:00,53.5,52.7,29.98,SSW,199,0.0,0.0,97,0.08,,---,0.09,0.00,VWS V14.01,2013-09-24 09:36:00,
2013-09-24 02:40:00,54.5,53.7,29.98,SSW,199,0.0,0.0,97,0.01,,---,0.01,0.00,VWS V14.01,2013-09-24 09:40:00,
2013-09-24 02:41:00,53.5,52.7,29.98,SSW,199,0.0,0.0,97,0.08,,---,0.09,0.00,VWS V14.01,2013-09-24 09:41:00,
2013-09-24 02:46:00,53.4,52.6,29.98,SSW,199,0.0,0.0,97,0.09,,---,0.10,0.00,VWS V14.01,2013-09-24 09:46:00,
2013-09-24 02:50:00,54.5,53.7,29.99,SSW,199,0.0,0.0,97,0.02,,---,0.02,0.00,VWS V14.01,2013-09-24 09:50:00,
2013-09-24 02:51:00,53.3,52.5,29.98,SSW,199,0.0,0.0,97,0.08,,---,0.10,0.00,VWS V14.01,2013-09-24 09:51:00,
2013-09-24 02:56:00,53.3,52.5,29.97,SSW,199,1.0,1.0,97,0.08,,---,0.10,0.00,VWS V14.01,2013-09-24 09:56:00,
2013-09-24 03:00:00,54.5,53.7,29.99,SSW,199,0.0,2.0,97,0.04,,---,0.04,0.00,VWS V14.01,2013-09-24 10:00:00,
2013-09-24 03:01:00,53.3,52.5,29.97,SSW,199,0.0,0.0,97,0.06,,---,0.10,0.00,VWS V14.01,2013-09-24 10:01:00,
2013-09-24 03:06:00,53.2,52.4,29.97,SSW,199,0.0,0.0,97,0.06,,---,0.10,0.00,VWS V14.01,2013-09-24 10:06:00,
2013-09-24 03:10:00,54.4,53.6,29.99,SSW,199,0.0,1.0,97,0.05,,---,0.06,0.00,VWS V14.01,2013-09-24 10:10:00,
2013-09-24 03:11:00,53.2,52.4,29.97,SSW,199,0.0,0.0,97,0.04,,---,0.10,0.00,VWS V14.01,2013-09-24 10:11:00,
2013-09-24 03:16:00,53.1,52.3,29.97,SSW,199,0.0,0.0,97,0.04,,---,0.10,0.00,VWS V14.01,2013-09-24 10:16:00,
2013-09-24 03:20:00,54.0,53.2,29.98,SSW,199,0.0,3.0,97,0.07,,---,0.08,0.00,VWS V14.01,2013-09-24 10:20:00,
2013-09-24 03:21:00,53.0,52.2,29.97,SSW,199,0.0,0.0,97,0.02,,---,0.10,0.00,VWS V14.01,2013-09-24 10:21:00,
2013-09-24 03:26:00,52.9,52.1,29.97,SSW,199,0.0,0.0,97,0.02,,---,0.10,0.00,VWS V14.01,2013-09-24 10:26:00,
2013-09-24 03:30:00,53.6,52.8,29.98,SSW,199,0.0,0.0,97,0.08,,---,0.09,0.00,VWS V14.01,2013-09-24 10:30:00,
2013-09-24 03:31:00,52.9,52.1,29.97,SSW,199,0.0,0.0,97,0.01,,---,0.10,0.00,VWS V14.01,2013-09-24 10:31:00,
2013-09-24 03:36:00,52.8,52.0,29.97,SSW,199,0.0,0.0,97,0.01,,---,0.10,0.00,VWS V14.01,2013-09-24 10:36:00,
2013-09-24 03:40:00,53.4,52.6,29.98,SSW,199,0.0,0.0,97,0.08,,---,0.09,0.00,VWS V14.01,2013-09-24 10:40:00,
2013-09-24 03:41:00,52.8,52.0,29.97,SSW,199,0.0,0.0,97,0.01,,---,0.10,0.00,VWS V14.01,2013-09-24 10:41:00,
2013-09-24 03:46:00,52.7,51.9,29.97,SSW,199,0.0,0.0,97,0.01,,---,0.10,0.00,VWS V14.01,2013-09-24 10:46:00,
2013-09-24 03:50:00,53.4,52.6,29.98,SSW,199,0.0,0.0,97,0.09,,---,0.10,0.00,VWS V14.01,2013-09-24 10:50:00,
2013-09-24 03:51:00,52.7,51.9,29.97,SSW,199,0.0,0.0,97,0.00,,---,0.10,0.00,VWS V14.01,2013-09-24 10:51:00,
2013-09-24 03:56:00,52.6,51.8,29.96,SSW,199,0.0,0.0,97,0.00,,---,0.10,0.00,VWS V14.01,2013-09-24 10:56:00,
2013-09-24 04:00:00,53.3,52.5,29.97,SSW,199,0.0,2.0,97,0.08,,---,0.10,0.00,VWS V14.01,2013-09-24 11:00:00,
2013-09-24 04:01:00,52.6,51.8,29.96,SSW,199,0.0,0.0,97,0.00,,---,0.10,0.00,VWS V14.01,2013-09-24 11:01:00,
2013-09-24 04:06:00,52.6,51.8,29.96,SSW,199,0.0,0.0,97,0.00,,---,0.10,0.00,VWS V14.01,2013-09-24 11:06:00,
2013-09-24 04:10:00,53.2,52.4,29.97,SSW,199,0.0,1.0,97,0.06,,---,0.10,0.00,VWS V14.01,2013-09-24 11:10:00,
2013-09-24 04:11:00,52.5,51.7,29.96,SSW,199,0.0,0.0,97,0.00,,---,0.10,0.00,VWS V14.01,2013-09-24 11:11:00,
2013-09-24 04:16:00,52.5,51.7,29.96,SSW,199,0.0,0.0,97,0.00,,---,0.10,0.00,VWS V14.01,2013-09-24 11:16:00,
2013-09-24 04:20:00,53.0,52.2,29.97,SSW,199,0.0,0.0,97,0.04,,---,0.10,0.00,VWS V14.01,2013-09-24 11:20:00,
2013-09-24 04:21:00,52.5,51.7,29.96,SSW,199,0.0,0.0,97,0.00,,---,0.10,0.00,VWS V14.01,2013-09-24 11:21:00,
2013-09-24 04:26:00,52.5,51.7,29.96,SSW,199,0.0,0.0,97,0.00,,---,0.10,0.00,VWS V14.01,2013-09-24 11:26:00,
2013-09-24 04:30:00,52.9,52.1,29.97,SSW,199,0.0,0.0,97,0.02,,---,0.10,0.00,VWS V14.01,2013-09-24 11:30:00,
2013-09-24 04:31:00,52.5,51.7,29.96,SSW,199,0.0,0.0,97,0.00,,---,0.10,0.00,VWS V14.01,2013-09-24 11:31:00,
2013-09-24 04:36:00,52.5,51.7,29.96,SSW,199,2.0,2.0,97,0.00,,---,0.10,0.00,VWS V14.01,2013-09-24 11:36:00,
2013-09-24 04:40:00,52.8,52.0,29.97,SSW,199,0.0,0.0,97,0.01,,---,0.10,0.00,VWS V14.01,2013-09-24 11:40:00,
2013-09-24 04:41:00,52.4,51.6,29.96,SSW,199,0.0,0.0,97,0.00,,---,0.10,0.00,VWS V14.01,2013-09-24 11:41:00,
2013-09-24 04:46:00,52.4,51.6,29.96,SSW,199,0.0,0.0,97,0.00,,---,0.10,0.00,VWS V14.01,2013-09-24 11:46:00,
2013-09-24 04:50:00,52.7,51.9,29.97,SSW,199,0.0,0.0,97,0.01,,---,0.10,0.00,VWS V14.01,2013-09-24 11:50:00,
2013-09-24 04:51:00,52.3,51.5,29.96,SSW,199,0.0,0.0,97,0.00,,---,0.10,0.00,VWS V14.01,2013-09-24 11:51:00,
2013-09-24 04:56:00,52.3,51.5,29.95,SSW,199,0.0,0.0,97,0.00,,---,0.10,0.00,VWS V14.01,2013-09-24 11:56:00,
2013-09-24 05:00:00,52.6,51.8,29.96,SSW,199,0.0,0.0,97,0.00,,---,0.10,0.00,VWS V14.01,2013-09-24 12:00:00,
2013-09-24 05:01:00,52.3,51.5,29.95,SSW,199,0.0,0.0,97,0.00,,---,0.10,0.00,VWS V14.01,2013-09-24 12:01:00,
2013-09-24 05:06:00,52.3,51.5,29.95,SSW,199,0.0,0.0,97,0.00,,---,0.10,0.00,VWS V14.01,2013-09-24 12:06:00,
2013-09-24 05:10:00,52.5,51.7,29.96,SSW,199,0.0,0.0,97,0.00,,---,0.10,0.00,VWS V14.01,2013-09-24 12:10:00,
2013-09-24 05:11:00,52.2,51.4,29.95,SSW,199,0.0,0.0,97,0.00,,---,0.10,0.00,VWS V14.01,2013-09-24 12:11:00,
2013-09-24 05:16:00,52.3,51.5,29.95,SSW,199,0.0,0.0,97,0.00,,---,0.10,0.00,VWS V14.01,2013-09-24 12:16:00,
2013-09-24 05:20:00,52.5,51.7,29.96,SSW,199,0.0,0.0,97,0.00,,---,0.10,0.00,VWS V14.01,2013-09-24 12:20:00,
2013-09-24 05:21:00,52.3,51.5,29.95,SSW,199,0.0,0.0,97,0.00,,---,0.10,0.00,VWS V14.01,2013-09-24 12:21:00,
2013-09-24 05:26:00,52.3,51.5,29.94,SSW,199,0.0,0.0,97,0.01,,---,0.11,0.00,VWS V14.01,2013-09-24 12:26:00,
2013-09-24 05:30:00,52.5,51.7,29.96,SSW,199,0.0,0.0,97,0.00,,---,0.10,0.00,VWS V14.01,2013-09-24 12:30:00,
2013-09-24 05:31:00,52.3,51.5,29.94,SSW,199,0.0,0.0,97,0.01,,---,0.11,0.00,VWS V14.01,2013-09-24 12:31:00,
2013-09-24 05:36:00,52.2,51.4,29.94,SSW,199,0.0,0.0,97,0.01,,---,0.11,0.00,VWS V14.01,2013-09-24 12:36:00,
2013-09-24 05:40:00,52.4,51.6,29.96,SSW,199,0.0,2.0,97,0.00,,---,0.10,0.00,VWS V14.01,2013-09-24 12:40:00,
2013-09-24 05:41:00,52.2,51.4,29.94,SSW,199,0.0,0.0,97,0.01,,---,0.11,0.00,VWS V14.01,2013-09-24 12:41:00,
2013-09-24 05:46:00,52.2,51.4,29.94,SSW,199,0.0,0.0,97,0.01,,---,0.11,0.00,VWS V14.01,2013-09-24 12:46:00,
2013-09-24 05:50:00,52.4,51.6,29.95,SSW,199,0.0,0.0,97,0.00,,---,0.10,0.00,VWS V14.01,2013-09-24 12:50:00,
2013-09-24 05:51:00,52.2,51.4,29.94,SSW,199,0.0,0.0,97,0.01,,---,0.11,0.00,VWS V14.01,2013-09-24 12:51:00,
2013-09-24 05:56:00,52.3,51.5,29.94,SSW,199,0.0,0.0,97,0.02,,---,0.12,0.00,VWS V14.01,2013-09-24 12:56:00,
2013-09-24 06:00:00,52.3,51.5,29.95,SSW,199,0.0,0.0,97,0.00,,---,0.10,0.00,VWS V14.01,2013-09-24 13:00:00,
2013-09-24 06:01:00,52.4,51.6,29.94,WNW,292,4.0,4.0,97,0.03,,---,0.13,0.00,VWS V14.01,2013-09-24 13:01:00,
2013-09-24 06:06:00,52.4,51.6,29.94,WNW,292,0.0,4.0,97,0.04,,---,0.14,0.00,VWS V14.01,2013-09-24 13:06:00,
2013-09-24 06:10:00,52.2,51.4,29.95,SSW,199,0.0,0.0,97,0.00,,---,0.10,0.00,VWS V14.01,2013-09-24 13:10:00,
2013-09-24 06:11:00,52.4,51.6,29.94,WNW,292,0.0,0.0,97,0.04,,---,0.14,0.00,VWS V14.01,2013-09-24 13:11:00,
2013-09-24 06:16:00,52.5,52.0,29.94,WNW,292,0.0,1.0,98,0.05,,---,0.15,0.00,VWS V14.01,2013-09-24 13:16:00,
2013-09-24 06:20:00,52.3,51.5,29.95,SSW,199,0.0,0.0,97,0.00,,---,0.10,0.00,VWS V14.01,2013-09-24 13:20:00,
2013-09-24 06:21:00,52.5,52.0,29.94,WNW,292,0.0,0.0,98,0.06,,---,0.16,0.00,VWS V14.01,2013-09-24 13:21:00,
2013-09-24 06:26:00,52.5,52.0,29.94,WNW,292,0.0,0.0,98,0.06,,---,0.16,0.00,VWS V14.01,2013-09-24 13:26:00,
2013-09-24 06:30:00,52.3,51.5,29.94,SSW,199,0.0,0.0,97,0.01,,---,0.11,0.00,VWS V14.01,2013-09-24 13:30:00,
2013-09-24 06:31:00,52.5,52.0,29.94,WNW,292,0.0,1.0,98,0.05,,---,0.16,0.00,VWS V14.01,2013-09-24 13:31:00,
2013-09-24 06:36:00,52.5,52.0,29.94,WNW,292,0.0,1.0,98,0.06,,---,0.17,0.00,VWS V14.01,2013-09-24 13:36:00,
2013-09-24 06:40:00,52.2,51.4,29.94,SSW,199,0.0,0.0,97,0.01,,---,0.11,0.00,VWS V14.01,2013-09-24 13:40:00,
2013-09-24 06:41:00,52.5,52.0,29.94,WNW,292,0.0,0.0,98,0.06,,---,0.17,0.00,VWS V14.01,2013-09-24 13:41:00,
2013-09-24 06:46:00,52.6,52.0,29.94,WNW,292,0.0,0.0,98,0.07,,---,0.18,0.00,VWS V14.01,2013-09-24 13:46:00,
2013-09-24 06:50:00,52.2,51.4,29.94,SSW,199,0.0,0.0,97,0.01,,---,0.11,0.00,VWS V14.01,2013-09-24 13:50:00,
2013-09-24 06:51:00,52.6,52.0,29.94,WNW,292,0.0,0.0,98,0.08,,---,0.19,0.00,VWS V14.01,2013-09-24 13:51:00,
2013-09-24 06:56:00,52.6,52.0,29.94,WNW,292,0.0,0.0,98,0.09,,---,0.20,0.00,VWS V14.01,2013-09-24 13:56:00,
2013-09-24 07:00:00,52.4,51.6,29.94,WNW,292,4.0,4.0,97,0.02,,---,0.12,0.00,VWS V14.01,2013-09-24 14:00:00,
2013-09-24 07:01:00,52.6,52.0,29.94,WNW,292,0.0,0.0,98,0.09,,---,0.21,0.00,VWS V14.01,2013-09-24 14:01:00,
2013-09-24 07:06:00,52.6,52.0,29.94,WNW,292,0.0,0.0,98,0.09,,---,0.21,0.00,VWS V14.01,2013-09-24 14:06:00,
2013-09-24 07:10:00,52.4,51.8,29.94,WNW,292,0.0,4.0,98,0.04,,---,0.14,0.00,VWS V14.01,2013-09-24 14:10:00,
2013-09-24 07:11:00,52.6,52.0,29.94,WNW,292,0.0,0.0,98,0.07,,---,0.21,0.00,VWS V14.01,2013-09-24 14:11:00,
2013-09-24 07:16:00,52.6,52.0,29.94,WNW,292,0.0,0.0,98,0.07,,---,0.21,0.00,VWS V14.01,2013-09-24 14:16:00,
2013-09-24 07:20:00,52.5,52.0,29.94,WNW,292,0.0,2.0,98,0.05,,---,0.15,0.00,VWS V14.01,2013-09-24 14:20:00,
2013-09-24 07:21:00,52.6,52.0,29.94,WNW,292,0.0,0.0,98,0.06,,---,0.21,5.00,VWS V14.01,2013-09-24 14:21:00,
2013-09-24 07:26:00,52.6,52.0,29.94,WNW,292,0.0,0.0,98,0.06,,---,0.21,9.00,VWS V14.01,2013-09-24 14:26:00,
2013-09-24 07:30:00,52.5,52.0,29.94,WNW,292,1.0,2.0,98,0.06,,---,0.16,0.00,VWS V14.01,2013-09-24 14:30:00,
2013-09-24 07:31:00,52.6,52.0,29.94,WNW,292,0.0,0.0,98,0.05,,---,0.21,12.00,VWS V14.01,2013-09-24 14:31:00,
2013-09-24 07:36:00,52.6,52.0,29.94,WNW,292,0.0,1.0,98,0.05,,---,0.21,18.00,VWS V14.01,2013-09-24 14:36:00,
2013-09-24 07:40:00,52.5,52.0,29.94,WNW,292,0.0,1.0,98,0.06,,---,0.17,0.00,VWS V14.01,2013-09-24 14:40:00,
2013-09-24 07:41:00,52.7,52.2,29.94,WNW,292,0.0,0.0,98,0.05,,---,0.22,21.00,VWS V14.01,2013-09-24 14:41:00,
2013-09-24 07:46:00,52.7,52.2,29.94,WNW,292,0.0,0.0,98,0.05,,---,0.22,21.00,VWS V14.01,2013-09-24 14:46:00,
2013-09-24 07:50:00,52.6,52.0,29.94,WNW,292,0.0,0.0,98,0.08,,---,0.19,0.00,VWS V14.01,2013-09-24 14:50:00,
2013-09-24 07:51:00,52.7,52.2,29.94,WNW,292,0.0,0.0,98,0.03,,---,0.22,21.00,VWS V14.01,2013-09-24 14:51:00,
2013-09-24 07:55:00,52.8,52.2,29.94,WNW,292,0.0,0.0,98,0.03,,---,0.22,16.00,VWS V14.01,2013-09-24 14:55:00,
2013-09-24 08:00:00,52.8,52.2,29.94,WNW,292,0.0,0.0,98,0.02,,---,0.22,14.00,VWS V14.01,2013-09-24 15:00:00,
2013-09-24 08:05:00,52.8,52.2,29.94,WNW,292,0.0,0.0,98,0.02,,---,0.22,16.00,VWS V14.01,2013-09-24 15:05:00,
2013-09-24 08:10:00,52.9,52.3,29.94,WNW,292,0.0,0.0,98,0.01,,---,0.22,21.00,VWS V14.01,2013-09-24 15:10:00,
2013-09-24 08:15:00,52.9,52.3,29.94,WNW,292,0.0,2.0,98,0.01,,---,0.22,26.00,VWS V14.01,2013-09-24 15:15:00,
2013-09-24 08:20:00,52.9,52.3,29.94,WNW,292,0.0,0.0,98,0.01,,---,0.22,33.00,VWS V14.01,2013-09-24 15:20:00,
2013-09-24 08:25:00,53.0,52.5,29.94,WNW,292,0.0,2.0,98,0.01,,---,0.22,35.00,VWS V14.01,2013-09-24 15:25:00,
2013-09-24 08:30:00,53.1,52.5,29.94,West,263,2.0,2.0,98,0.01,,---,0.22,30.00,VWS V14.01,2013-09-24 15:30:00,
2013-09-24 08:35:00,53.1,52.5,29.95,West,263,0.0,3.0,98,0.01,,---,0.22,30.00,VWS V14.01,2013-09-24 15:35:00,
2013-09-24 08:40:00,53.0,52.5,29.95,SW,230,0.0,0.0,98,0.00,,---,0.22,28.00,VWS V14.01,2013-09-24 15:40:00,
2013-09-24 08:45:00,53.1,52.5,29.95,SW,230,0.0,1.0,98,0.00,,---,0.22,28.00,VWS V14.01,2013-09-24 15:45:00,
2013-09-24 08:50:00,53.1,52.5,29.95,SW,230,0.0,0.0,98,0.01,,---,0.23,32.00,VWS V14.01,2013-09-24 15:50:00,
2013-09-24 08:55:00,53.1,52.5,29.95,SW,230,0.0,3.0,98,0.01,,---,0.23,37.00,VWS V14.01,2013-09-24 15:55:00,
2013-09-24 09:00:00,53.0,52.5,29.96,WSW,251,2.0,2.0,98,0.01,,---,0.23,47.00,VWS V14.01,2013-09-24 16:00:00,
2013-09-24 09:05:00,52.9,52.3,29.96,West,266,2.0,5.0,98,0.01,,---,0.23,60.00,VWS V14.01,2013-09-24 16:05:00,
2013-09-24 09:10:00,52.8,52.2,29.95,West,266,3.0,3.0,98,0.01,,---,0.23,83.00,VWS V14.01,2013-09-24 16:10:00,
2013-09-24 09:15:00,52.8,52.0,29.95,WSW,239,2.0,5.0,97,0.01,,---,0.23,102.00,VWS V14.01,2013-09-24 16:15:00,
2013-09-24 09:20:00,52.6,52.0,29.96,WSW,240,1.0,2.0,98,0.01,,---,0.23,86.00,VWS V14.01,2013-09-24 16:20:00,
2013-09-24 09:25:00,52.5,51.7,29.96,WSW,240,0.0,4.0,97,0.01,,---,0.23,91.00,VWS V14.01,2013-09-24 16:25:00,
2013-09-24 09:30:00,52.6,51.8,29.96,WSW,240,0.0,2.0,97,0.01,,---,0.23,90.00,VWS V14.01,2013-09-24 16:30:00,
2013-09-24 09:35:00,52.5,51.7,29.96,WSW,240,1.0,3.0,97,0.01,,---,0.23,109.00,VWS V14.01,2013-09-24 16:35:00,
2013-09-24 09:40:00,52.5,51.7,29.97,West,281,3.0,5.0,97,0.01,,---,0.23,111.00,VWS V14.01,2013-09-24 16:40:00,
2013-09-24 09:45:00,52.6,51.8,29.97,West,270,1.0,5.0,97,0.01,,---,0.23,113.00,VWS V14.01,2013-09-24 16:45:00,
2013-09-24 09:50:00,52.7,51.9,29.97,West,271,0.0,2.0,97,0.00,,---,0.23,93.00,VWS V14.01,2013-09-24 16:50:00,
2013-09-24 09:55:00,52.8,52.0,29.97,West,271,3.0,4.0,97,0.00,,---,0.23,93.00,VWS V14.01,2013-09-24 16:55:00,
2013-09-24 10:00:00,52.9,52.1,29.97,West,271,4.0,4.0,97,0.00,,---,0.23,114.00,VWS V14.01,2013-09-24 17:00:00,
2013-09-24 10:05:00,53.0,52.2,29.97,West,271,1.0,4.0,97,0.00,,---,0.23,158.00,VWS V14.01,2013-09-24 17:05:00,
2013-09-24 10:10:00,53.1,52.3,29.97,WSW,242,4.0,4.0,97,0.00,,---,0.23,200.00,VWS V14.01,2013-09-24 17:10:00,
2013-09-24 10:15:00,53.1,52.0,29.97,West,259,6.0,7.0,96,0.00,,---,0.23,213.00,VWS V14.01,2013-09-24 17:15:00,
2013-09-24 10:20:00,53.1,52.0,29.97,WSW,254,4.0,5.0,96,0.00,,---,0.23,229.00,VWS V14.01,2013-09-24 17:20:00,
2013-09-24 10:25:00,53.4,52.3,29.97,WSW,243,5.0,5.0,96,0.00,,---,0.23,290.00,VWS V14.01,2013-09-24 17:25:00,
2013-09-24 10:30:00,53.6,52.5,29.97,WSW,257,2.0,7.0,96,0.00,,---,0.23,294.00,VWS V14.01,2013-09-24 17:30:00,
2013-09-24 10:35:00,53.9,52.8,29.97,WSW,250,0.0,7.0,96,0.00,,---,0.23,253.00,VWS V14.01,2013-09-24 17:35:00,
2013-09-24 10:40:00,54.1,52.7,29.97,West,266,3.0,4.0,95,0.00,,---,0.23,299.00,VWS V14.01,2013-09-24 17:40:00,
2013-09-24 10:45:00,54.4,53.0,29.97,SW,221,0.0,5.0,95,0.00,,---,0.23,431.00,VWS V14.01,2013-09-24 17:45:00,
2013-09-24 10:50:00,54.5,52.5,29.97,SW,225,3.0,4.0,93,0.00,,---,0.23,359.00,VWS V14.01,2013-09-24 17:50:00,
2013-09-24 10:55:00,54.7,52.7,29.97,WSW,242,2.0,5.0,93,0.00,,---,0.23,297.00,VWS V14.01,2013-09-24 17:55:00,
2013-09-24 11:00:00,54.8,52.5,29.97,SSW,200,1.0,1.0,92,0.00,,---,0.23,290.00,VWS V14.01,2013-09-24 18:00:00,
2013-09-24 11:05:00,55.0,52.7,29.97,SW,228,3.0,4.0,92,0.00,,---,0.23,239.00,VWS V14.01,2013-09-24 18:05:00,
2013-09-24 11:10:00,54.9,52.0,29.97,SSW,206,0.0,2.0,90,0.00,,---,0.23,230.00,VWS V14.01,2013-09-24 18:10:00,
2013-09-24 11:15:00,55.0,52.7,29.96,SSW,206,0.0,3.0,92,0.00,,---,0.23,279.00,VWS V14.01,2013-09-24 18:15:00,
2013-09-24 11:20:00,55.1,52.5,29.97,SSW,206,3.0,4.0,91,0.00,,---,0.23,260.00,VWS V14.01,2013-09-24 18:20:00,
2013-09-24 11:25:00,55.3,52.7,29.96,SSW,207,2.0,4.0,91,0.00,,---,0.23,396.00,VWS V14.01,2013-09-24 18:25:00,
2013-09-24 11:30:00,55.5,52.6,29.96,SSW,211,1.0,3.0,90,0.00,,---,0.23,346.00,VWS V14.01,2013-09-24 18:30:00,
2013-09-24 11:35:00,55.4,51.9,29.96,South,190,3.0,9.0,88,0.00,,---,0.23,323.00,VWS V14.01,2013-09-24 18:35:00,
2013-09-24 11:40:00,55.6,52.7,29.96,South,187,4.0,6.0,90,0.00,,---,0.23,353.00,VWS V14.01,2013-09-24 18:40:00,
2013-09-24 11:45:00,55.6,52.1,29.96,South,178,0.0,6.0,88,0.00,,---,0.23,352.00,VWS V14.01,2013-09-24 18:45:00,
2013-09-24 11:50:00,55.8,52.6,29.96,SSW,205,4.0,5.0,89,0.00,,---,0.23,292.00,VWS V14.01,2013-09-24 18:50:00,
2013-09-24 11:55:00,56.0,52.8,29.96,SSW,200,0.0,6.0,89,0.00,,---,0.23,294.00,VWS V14.01,2013-09-24 18:55:00,
2013-09-24 12:00:00,56.3,53.1,29.96,SSE,149,0.0,1.0,89,0.00,,---,0.23,265.00,VWS V14.01,2013-09-24 19:00:00,
2013-09-24 12:05:00,56.3,52.8,29.96,SSW,200,3.0,6.0,88,0.00,,---,0.23,272.00,VWS V14.01,2013-09-24 19:05:00,
2013-09-24 12:10:00,56.4,53.2,29.96,South,189,2.0,3.0,89,0.00,,---,0.23,338.00,VWS V14.01,2013-09-24 19:10:00,
2013-09-24 12:15:00,56.7,53.8,29.96,South,190,1.0,5.0,90,0.00,,---,0.23,436.00,VWS V14.01,2013-09-24 19:15:00,
2013-09-24 12:20:00,56.9,53.4,29.95,South,180,3.0,5.0,88,0.00,,---,0.23,415.00,VWS V14.01,2013-09-24 19:20:00,
2013-09-24 12:25:00,57.1,53.9,29.96,SSE,166,1.0,10.0,89,0.00,,---,0.23,362.00,VWS V14.01,2013-09-24 19:25:00,
2013-09-24 12:30:00,57.1,53.3,29.96,South,184,8.0,8.0,87,0.00,,---,0.23,334.00,VWS V14.01,2013-09-24 19:30:00,
2013-09-24 12:35:00,57.1,53.3,29.96,SSE,165,2.0,10.0,87,0.00,,---,0.23,329.00,VWS V14.01,2013-09-24 19:35:00,
2013-09-24 12:40:00,57.1,53.3,29.95,South,175,4.0,9.0,87,0.00,,---,0.23,348.00,VWS V14.01,2013-09-24 19:40:00,
2013-09-24 12:45:00,57.0,52.9,29.95,SW,236,2.0,11.0,86,0.00,,---,0.23,640.00,VWS V14.01,2013-09-24 19:45:00,
2013-09-24 12:50:00,57.4,53.6,29.95,WSW,247,3.0,3.0,87,0.00,,---,0.23,397.00,VWS V14.01,2013-09-24 19:50:00,
2013-09-24 12:55:00,57.6,53.5,29.94,SE,144,4.0,13.0,86,0.00,,---,0.23,526.00,VWS V14.01,2013-09-24 19:55:00,
2013-09-24 13:00:00,57.9,53.4,29.94,SSW,205,4.0,13.0,85,0.00,,---,0.23,441.00,VWS V14.01,2013-09-24 20:00:00,
2013-09-24 13:05:00,58.2,53.1,29.94,SSW,205,3.0,11.0,83,0.00,,---,0.23,554.00,VWS V14.01,2013-09-24 20:05:00,
2013-09-24 13:10:00,58.4,53.6,29.94,South,180,7.0,11.0,84,0.00,,---,0.23,313.00,VWS V14.01,2013-09-24 20:10:00,
2013-09-24 13:15:00,58.3,52.8,29.94,SSW,212,4.0,10.0,82,0.00,,---,0.23,348.00,VWS V14.01,2013-09-24 20:15:00,
2013-09-24 13:20:00,58.7,53.2,29.94,SSE,161,5.0,12.0,82,0.00,,---,0.23,434.00,VWS V14.01,2013-09-24 20:20:00,
2013-09-24 13:25:00,58.9,53.1,29.94,South,182,5.0,7.0,81,0.00,,---,0.23,348.00,VWS V14.01,2013-09-24 20:25:00,
2013-09-24 13:30:00,58.9,53.4,29.94,SSE,151,2.0,9.0,82,0.00,,---,0.23,385.00,VWS V14.01,2013-09-24 20:30:00,
2013-09-24 13:35:00,58.9,52.8,29.94,SSW,209,1.0,10.0,80,0.00,,---,0.23,332.00,VWS V14.01,2013-09-24 20:35:00,
2013-09-24 13:40:00,59.0,53.2,29.94,SSW,206,1.0,10.0,81,0.00,,---,0.23,257.00,VWS V14.01,2013-09-24 20:40:00,
2013-09-24 13:45:00,59.0,53.2,29.94,SW,215,2.0,10.0,81,0.00,,---,0.23,243.00,VWS V14.01,2013-09-24 20:45:00,
2013-09-24 13:50:00,58.9,53.1,29.94,SSW,202,5.0,10.0,81,0.00,,---,0.23,221.00,VWS V14.01,2013-09-24 20:50:00,
2013-09-24 13:55:00,58.7,52.6,29.93,South,188,2.0,11.0,80,0.00,,---,0.23,246.00,VWS V14.01,2013-09-24 20:55:00,
2013-09-24 14:00:00,58.7,53.2,29.93,SSE,168,6.0,11.0,82,0.00,,---,0.23,352.00,VWS V14.01,2013-09-24 21:00:00,
2013-09-24 14:05:00,58.8,52.7,29.93,South,187,5.0,12.0,80,0.00,,---,0.23,401.00,VWS V14.01,2013-09-24 21:05:00,
2013-09-24 14:10:00,58.7,52.2,29.93,South,171,4.0,13.0,79,0.00,,---,0.23,357.00,VWS V14.01,2013-09-24 21:10:00,
2013-09-24 14:15:00,58.7,52.9,29.93,SSW,207,5.0,11.0,81,0.00,,---,0.23,371.00,VWS V14.01,2013-09-24 21:15:00,
2013-09-24 14:20:00,58.8,53.3,29.93,SSW,208,5.0,12.0,82,0.00,,---,0.23,441.00,VWS V14.01,2013-09-24 21:20:00,
2013-09-24 14:25:00,58.9,52.8,29.93,SSE,153,10.0,14.0,80,0.00,,---,0.23,338.00,VWS V14.01,2013-09-24 21:25:00,
2013-09-24 14:30:00,58.5,53.0,29.93,SW,229,4.0,14.0,82,0.00,,---,0.23,508.00,VWS V14.01,2013-09-24 21:30:00,
2013-09-24 14:35:00,58.6,54.1,29.93,SSE,158,5.0,10.0,85,0.00,,---,0.23,577.00,VWS V14.01,2013-09-24 21:35:00,
2013-09-24 14:40:00,58.7,53.6,29.93,SSW,204,9.0,14.0,83,0.00,,---,0.23,401.00,VWS V14.01,2013-09-24 21:40:00,
2013-09-24 14:45:00,58.4,52.3,29.93,SW,221,6.0,13.0,80,0.00,,---,0.23,475.00,VWS V14.01,2013-09-24 21:45:00,
2013-09-24 14:50:00,58.4,52.3,29.93,SSW,213,3.0,13.0,80,0.00,,---,0.23,410.00,VWS V14.01,2013-09-24 21:50:00,
2013-09-24 14:55:00,58.8,52.7,29.93,West,271,8.0,10.0,80,0.00,,---,0.23,287.00,VWS V14.01,2013-09-24 21:55:00,
2013-09-24 15:00:00,58.9,52.4,29.93,SSW,198,3.0,10.0,79,0.00,,---,0.23,223.00,VWS V14.01,2013-09-24 22:00:00,
2013-09-24 15:05:00,58.6,52.1,29.93,SSW,192,3.0,11.0,79,0.00,,---,0.23,188.00,VWS V14.01,2013-09-24 22:05:00,
2013-09-24 15:10:00,58.5,52.4,29.92,SSW,192,3.0,11.0,80,0.00,,---,0.23,160.00,VWS V14.01,2013-09-24 22:10:00,
2013-09-24 15:15:00,58.3,51.8,29.93,South,190,4.0,8.0,79,0.00,,---,0.23,104.00,VWS V14.01,2013-09-24 22:15:00,
2013-09-24 15:20:00,58.3,52.2,29.93,WSW,248,0.0,8.0,80,0.00,,---,0.23,46.00,VWS V14.01,2013-09-24 22:20:00,
2013-09-24 15:25:00,58.1,52.6,29.93,SSW,202,2.0,9.0,82,0.02,,---,0.25,25.00,VWS V14.01,2013-09-24 22:25:00,
2013-09-24 15:30:00,56.6,51.5,29.93,SE,138,5.0,9.0,83,0.08,,---,0.31,30.00,VWS V14.01,2013-09-24 22:30:00,
2013-09-24 15:35:00,55.6,51.8,29.93,WSW,245,1.0,5.0,87,0.09,,---,0.32,49.00,VWS V14.01,2013-09-24 22:35:00,
2013-09-24 15:40:00,55.0,51.8,29.93,WSW,245,0.0,5.0,89,0.10,,---,0.33,81.00,VWS V14.01,2013-09-24 22:40:00,
2013-09-24 15:45:00,54.7,52.1,29.93,WSW,245,0.0,2.0,91,0.10,,---,0.33,91.00,VWS V14.01,2013-09-24 22:45:00,
2013-09-24 15:50:00,54.5,52.2,29.93,WSW,245,0.0,2.0,92,0.10,,---,0.33,95.00,VWS V14.01,2013-09-24 22:50:00,
2013-09-24 15:55:00,54.4,52.1,29.93,West,276,0.0,5.0,92,0.10,,---,0.33,127.00,VWS V14.01,2013-09-24 22:55:00,
2013-09-24 16:00:00,54.2,51.6,29.93,WSW,242,3.0,5.0,91,0.10,,---,0.33,127.00,VWS V14.01,2013-09-24 23:00:00,
2013-09-24 16:05:00,54.1,51.2,29.93,WSW,246,2.0,4.0,90,0.11,,---,0.34,88.00,VWS V14.01,2013-09-24 23:05:00,
2013-09-24 16:10:00,54.0,51.1,29.93,WSW,246,1.0,4.0,90,0.11,,---,0.34,84.00,VWS V14.01,2013-09-24 23:10:00,
2013-09-24 16:15:00,53.9,51.0,29.92,WSW,246,0.0,3.0,90,0.11,,---,0.34,84.00,VWS V14.01,2013-09-24 23:15:00,
2013-09-24 16:20:00,53.9,51.0,29.92,WSW,246,0.0,3.0,90,0.12,,---,0.35,125.00,VWS V14.01,2013-09-24 23:20:00,
2013-09-24 16:25:00,53.9,51.3,29.92,WSW,246,0.0,5.0,91,0.12,,---,0.35,134.00,VWS V14.01,2013-09-24 23:25:00,
2013-09-24 16:30:00,53.9,51.3,29.92,WSW,246,0.0,5.0,91,0.12,,---,0.35,120.00,VWS V14.01,2013-09-24 23:30:00,
2013-09-24 16:35:00,53.9,51.3,29.92,SW,217,0.0,4.0,91,0.04,,---,0.35,125.00,VWS V14.01,2013-09-24 23:35:00,
2013-09-24 16:40:00,54.0,51.4,29.92,SW,217,0.0,4.0,91,0.04,,---,0.35,132.00,VWS V14.01,2013-09-24 23:40:00,
2013-09-24 16:45:00,54.1,51.8,29.93,SW,217,2.0,2.0,92,0.02,,---,0.35,123.00,VWS V14.01,2013-09-24 23:45:00,
2013-09-24 16:50:00,54.2,51.9,29.93,SSW,209,3.0,3.0,92,0.02,,---,0.35,109.00,VWS V14.01,2013-09-24 23:50:00,
2013-09-24 16:55:00,54.2,51.9,29.93,SSW,209,0.0,4.0,92,0.02,,---,0.35,105.00,VWS V14.01,2013-09-24 23:55:00,
2013-09-24 17:00:00,54.2,52.2,29.93,SSW,209,1.0,4.0,93,0.02,,---,0.35,90.00,VWS V14.01,2013-09-25 00:00:00,
2013-09-24 17:05:00,54.1,52.1,29.92,South,182,2.0,3.0,93,0.02,,---,0.35,72.00,VWS V14.01,2013-09-25 00:05:00,
2013-09-24 17:10:00,54.0,52.0,29.93,South,183,2.0,5.0,93,0.02,,---,0.35,56.00,VWS V14.01,2013-09-25 00:10:00,
2013-09-24 17:15:00,54.0,52.0,29.93,South,183,0.0,2.0,93,0.01,,---,0.35,49.00,VWS V14.01,2013-09-25 00:15:00,
2013-09-24 17:20:00,53.8,51.8,29.92,South,186,2.0,4.0,93,0.01,,---,0.35,49.00,VWS V14.01,2013-09-25 00:20:00,
2013-09-24 17:25:00,53.7,51.7,29.92,South,186,1.0,4.0,93,0.00,,---,0.35,44.00,VWS V14.01,2013-09-25 00:25:00,
2013-09-24 17:30:00,53.6,51.6,29.92,South,186,0.0,4.0,93,0.00,,---,0.35,51.00,VWS V14.01,2013-09-25 00:30:00,
2013-09-24 17:35:00,53.5,51.8,29.92,ESE,121,1.0,3.0,94,0.00,,---,0.35,58.00,VWS V14.01,2013-09-25 00:35:00,
2013-09-24 17:40:00,53.3,51.3,29.92,SE,128,0.0,5.0,93,0.00,,---,0.35,60.00,VWS V14.01,2013-09-25 00:40:00,
2013-09-24 17:45:00,52.9,50.9,29.92,SE,127,2.0,5.0,93,0.00,,---,0.35,54.00,VWS V14.01,2013-09-25 00:45:00,
2013-09-24 17:50:00,52.7,50.7,29.92,SE,145,0.0,6.0,93,0.00,,---,0.35,53.00,VWS V14.01,2013-09-25 00:50:00,
2013-09-24 17:55:00,52.5,50.8,29.92,South,171,2.0,6.0,94,0.00,,---,0.35,54.00,VWS V14.01,2013-09-25 00:55:00,
2013-09-24 18:00:00,52.4,50.7,29.92,South,187,1.0,6.0,94,0.00,,---,0.35,47.00,VWS V14.01,2013-09-25 01:00:00,
2013-09-24 18:05:00,52.3,50.6,29.92,South,185,3.0,4.0,94,0.00,,---,0.35,47.00,VWS V14.01,2013-09-25 01:05:00,
2013-09-24 18:10:00,52.3,50.9,29.92,South,185,0.0,4.0,95,0.00,,---,0.35,49.00,VWS V14.01,2013-09-25 01:10:00,
2013-09-24 18:15:00,52.3,50.9,29.91,South,185,0.0,0.0,95,0.00,,---,0.35,42.00,VWS V14.01,2013-09-25 01:15:00,
2013-09-24 18:20:00,52.3,50.9,29.91,South,185,0.0,2.0,95,0.00,,---,0.35,30.00,VWS V14.01,2013-09-25 01:20:00,
2013-09-24 18:25:00,52.3,50.9,29.91,South,185,0.0,2.0,95,0.00,,---,0.35,25.00,VWS V14.01,2013-09-25 01:25:00,
2013-09-24 18:30:00,52.3,50.9,29.91,South,185,0.0,2.0,95,0.00,,---,0.35,16.00,VWS V14.01,2013-09-25 01:30:00,
2013-09-24 18:35:00,52.3,50.9,29.90,South,186,0.0,2.0,95,0.00,,---,0.35,7.00,VWS V14.01,2013-09-25 01:35:00,
2013-09-24 18:40:00,52.3,50.9,29.91,South,185,0.0,2.0,95,0.00,,---,0.35,0.00,VWS V14.01,2013-09-25 01:40:00,
2013-09-24 18:45:00,52.3,50.9,29.91,South,185,0.0,0.0,95,0.01,,---,0.36,0.00,VWS V14.01,2013-09-25 01:45:00,
2013-09-24 18:50:00,52.3,50.9,29.91,South,185,0.0,0.0,95,0.05,,---,0.40,0.00,VWS V14.01,2013-09-25 01:50:00,
2013-09-24 18:55:00,52.2,50.8,29.91,South,185,0.0,0.0,95,0.08,,---,0.43,0.00,VWS V14.01,2013-09-25 01:55:00,
2013-09-24 19:00:00,52.2,50.8,29.91,WNW,302,3.0,5.0,95,0.09,,---,0.44,0.00,VWS V14.01,2013-09-25 02:00:00,
2013-09-24 19:05:00,52.2,50.8,29.91,NNW,343,1.0,6.0,95,0.12,,---,0.47,0.00,VWS V14.01,2013-09-25 02:05:00,
2013-09-24 19:10:00,51.9,50.5,29.91,SE,142,2.0,6.0,95,0.14,,---,0.49,0.00,VWS V14.01,2013-09-25 02:10:00,
2013-09-24 19:15:00,51.5,50.1,29.91,SW,229,0.0,3.0,95,0.15,,---,0.50,0.00,VWS V14.01,2013-09-25 02:15:00,
2013-09-24 19:20:00,51.0,49.3,29.91,SW,225,0.0,3.0,94,0.16,,---,0.51,0.00,VWS V14.01,2013-09-25 02:20:00,
2013-09-24 19:25:00,50.7,49.0,29.90,SW,225,0.0,0.0,94,0.16,,---,0.51,0.00,VWS V14.01,2013-09-25 02:25:00,
2013-09-24 19:30:00,50.4,48.7,29.90,SW,225,0.0,1.0,94,0.16,,---,0.51,0.00,VWS V14.01,2013-09-25 02:30:00,
2013-09-24 19:35:00,50.2,48.5,29.90,SW,225,0.0,0.0,94,0.16,,---,0.51,0.00,VWS V14.01,2013-09-25 02:35:00,
2013-09-24 19:40:00,50.1,48.4,29.90,SW,225,0.0,0.0,94,0.16,,---,0.51,0.00,VWS V14.01,2013-09-25 02:40:00,
2013-09-24 19:45:00,50.0,48.3,29.90,SW,225,0.0,0.0,94,0.16,,---,0.51,0.00,VWS V14.01,2013-09-25 02:45:00,
2013-09-24 19:50:00,49.9,48.5,29.90,SW,225,0.0,0.0,95,0.16,,---,0.51,0.00,VWS V14.01,2013-09-25 02:50:00,
2013-09-24 19:55:00,49.9,48.5,29.90,SW,225,0.0,2.0,95,0.11,,---,0.51,0.00,VWS V14.01,2013-09-25 02:55:00,
2013-09-24 20:00:00,49.9,48.5,29.90,SW,225,0.0,2.0,95,0.11,,---,0.51,0.00,VWS V14.01,2013-09-25 03:00:00,
2013-09-24 20:05:00,49.8,48.4,29.89,SW,225,0.0,2.0,95,0.07,,---,0.51,0.00,VWS V14.01,2013-09-25 03:05:00,
2013-09-24 20:10:00,49.8,48.4,29.90,SW,225,0.0,2.0,95,0.07,,---,0.51,0.00,VWS V14.01,2013-09-25 03:10:00,
2013-09-24 20:15:00,49.7,48.3,29.90,SW,225,0.0,1.0,95,0.02,,---,0.51,0.00,VWS V14.01,2013-09-25 03:15:00,
2013-09-24 20:20:00,49.5,48.1,29.90,SW,225,0.0,1.0,95,0.02,,---,0.51,0.00,VWS V14.01,2013-09-25 03:20:00,
2013-09-24 20:25:00,49.5,48.1,29.90,SW,225,0.0,0.0,95,0.00,,---,0.51,0.00,VWS V14.01,2013-09-25 03:25:00,
2013-09-24 20:30:00,49.4,48.3,29.91,SW,225,0.0,0.0,96,0.00,,---,0.51,0.00,VWS V14.01,2013-09-25 03:30:00,
2013-09-24 20:35:00,49.3,48.2,29.90,SW,225,0.0,1.0,96,0.00,,---,0.51,0.00,VWS V14.01,2013-09-25 03:35:00,
2013-09-24 20:40:00,49.3,48.2,29.91,SW,225,0.0,1.0,96,0.00,,---,0.51,0.00,VWS V14.01,2013-09-25 03:40:00,
2013-09-24 20:45:00,49.2,48.1,29.91,SW,225,0.0,0.0,96,0.00,,---,0.51,0.00,VWS V14.01,2013-09-25 03:45:00,
2013-09-24 20:50:00,49.2,48.1,29.91,SW,225,0.0,0.0,96,0.00,,---,0.51,0.00,VWS V14.01,2013-09-25 03:50:00,
2013-09-24 20:55:00,49.2,48.1,29.91,SW,225,0.0,0.0,96,0.00,,---,0.51,0.00,VWS V14.01,2013-09-25 03:55:00,
2013-09-24 21:00:00,49.1,48.0,29.91,SW,225,0.0,0.0,96,0.00,,---,0.51,0.00,VWS V14.01,2013-09-25 04:00:00,
2013-09-24 21:01:00,49.1,48.0,29.91,SW,225,0.0,0.0,96,0.00,,---,0.51,0.00,VWS V14.01,2013-09-25 04:01:00,
2013-09-24 21:06:00,49.2,48.1,29.91,SW,225,0.0,0.0,96,0.00,,---,0.51,0.00,VWS V14.01,2013-09-25 04:06:00,
2013-09-24 21:10:00,49.8,48.4,29.90,SW,225,0.0,2.0,95,0.07,,---,0.51,0.00,VWS V14.01,2013-09-25 04:10:00,
2013-09-24 21:11:00,49.2,48.1,29.91,SW,225,0.0,0.0,96,0.00,,---,0.51,0.00,VWS V14.01,2013-09-25 04:11:00,
2013-09-24 21:16:00,49.2,48.1,29.91,SW,225,0.0,0.0,96,0.00,,---,0.51,0.00,VWS V14.01,2013-09-25 04:16:00,
2013-09-24 21:20:00,49.5,48.1,29.90,SW,225,0.0,1.0,95,0.02,,---,0.51,0.00,VWS V14.01,2013-09-25 04:20:00,
2013-09-24 21:21:00,49.2,48.1,29.91,SW,225,0.0,0.0,96,0.00,,---,0.51,0.00,VWS V14.01,2013-09-25 04:21:00,
2013-09-24 21:26:00,49.2,48.1,29.91,SW,225,0.0,0.0,96,0.00,,---,0.51,0.00,VWS V14.01,2013-09-25 04:26:00,
2013-09-24 21:30:00,49.4,48.3,29.91,SW,225,0.0,0.0,96,0.00,,---,0.51,0.00,VWS V14.01,2013-09-25 04:30:00,
2013-09-24 21:31:00,49.1,48.0,29.91,SW,225,0.0,0.0,96,0.00,,---,0.51,0.00,VWS V14.01,2013-09-25 04:31:00,
2013-09-24 21:36:00,49.2,48.1,29.91,SW,225,0.0,0.0,96,0.00,,---,0.51,0.00,VWS V14.01,2013-09-25 04:36:00,
2013-09-24 21:40:00,49.3,48.2,29.91,SW,225,0.0,1.0,96,0.00,,---,0.51,0.00,VWS V14.01,2013-09-25 04:40:00,
2013-09-24 21:41:00,49.2,48.1,29.90,SW,225,0.0,0.0,96,0.00,,---,0.51,0.00,VWS V14.01,2013-09-25 04:41:00,
2013-09-24 21:46:00,49.2,48.4,29.91,SW,225,0.0,3.0,97,0.00,,---,0.51,0.00,VWS V14.01,2013-09-25 04:46:00,
2013-09-24 21:50:00,49.2,48.1,29.91,SW,225,0.0,0.0,96,0.00,,---,0.51,0.00,VWS V14.01,2013-09-25 04:50:00,
2013-09-24 21:51:00,49.2,48.4,29.91,SW,225,0.0,0.0,97,0.00,,---,0.51,0.00,VWS V14.01,2013-09-25 04:51:00,
2013-09-24 21:56:00,49.3,48.5,29.90,SW,225,0.0,2.0,97,0.00,,---,0.51,0.00,VWS V14.01,2013-09-25 04:56:00,
2013-09-24 22:00:00,49.1,48.0,29.91,SW,225,0.0,0.0,96,0.00,,---,0.51,0.00,VWS V14.01,2013-09-25 05:00:00,
2013-09-24 22:01:00,49.3,48.5,29.90,SW,225,0.0,0.0,97,0.00,,---,0.51,0.00,VWS V14.01,2013-09-25 05:01:00,
2013-09-24 22:06:00,49.3,48.5,29.90,SW,225,0.0,2.0,97,0.00,,---,0.51,0.00,VWS V14.01,2013-09-25 05:06:00,
2013-09-24 22:10:00,49.2,48.1,29.91,SW,225,0.0,1.0,96,0.00,,---,0.51,0.00,VWS V14.01,2013-09-25 05:10:00,
2013-09-24 22:11:00,49.2,48.4,29.90,SW,225,0.0,0.0,97,0.00,,---,0.51,0.00,VWS V14.01,2013-09-25 05:11:00,
2013-09-24 22:16:00,49.2,48.4,29.90,SW,225,0.0,2.0,97,0.00,,---,0.51,0.00,VWS V14.01,2013-09-25 05:16:00,
2013-09-24 22:20:00,49.2,48.1,29.91,SW,225,0.0,0.0,96,0.00,,---,0.51,0.00,VWS V14.01,2013-09-25 05:20:00,
2013-09-24 22:21:00,49.2,48.4,29.90,SW,225,0.0,0.0,97,0.00,,---,0.51,0.00,VWS V14.01,2013-09-25 05:21:00,
2013-09-24 22:26:00,49.3,48.5,29.90,SW,225,0.0,3.0,97,0.00,,---,0.51,0.00,VWS V14.01,2013-09-25 05:26:00,
2013-09-24 22:30:00,49.1,48.0,29.91,SW,225,0.0,0.0,96,0.00,,---,0.51,0.00,VWS V14.01,2013-09-25 05:30:00,
2013-09-24 22:31:00,49.3,48.5,29.90,SW,225,0.0,0.0,97,0.00,,---,0.51,0.00,VWS V14.01,2013-09-25 05:31:00,
2013-09-24 22:36:00,49.3,48.5,29.90,SW,225,1.0,4.0,97,0.00,,---,0.51,0.00,VWS V14.01,2013-09-25 05:36:00,
2013-09-24 22:40:00,49.2,48.1,29.91,SW,225,0.0,0.0,96,0.00,,---,0.51,0.00,VWS V14.01,2013-09-25 05:40:00,
2013-09-24 22:41:00,49.3,48.5,29.90,SW,225,1.0,3.0,97,0.00,,---,0.51,0.00,VWS V14.01,2013-09-25 05:41:00,
2013-09-24 22:46:00,49.4,48.6,29.89,SW,225,1.0,3.0,97,0.00,,---,0.51,0.00,VWS V14.01,2013-09-25 05:46:00,
2013-09-24 22:50:00,49.2,48.4,29.91,SW,225,0.0,3.0,97,0.00,,---,0.51,0.00,VWS V14.01,2013-09-25 05:50:00,
2013-09-24 22:51:00,49.4,48.6,29.90,SW,225,0.0,0.0,97,0.00,,---,0.51,0.00,VWS V14.01,2013-09-25 05:51:00,
2013-09-24 22:56:00,49.5,48.7,29.90,SW,225,0.0,0.0,97,0.00,,---,0.51,0.00,VWS V14.01,2013-09-25 05:56:00,
2013-09-24 23:00:00,49.3,48.5,29.91,SW,225,0.0,2.0,97,0.00,,---,0.51,0.00,VWS V14.01,2013-09-25 06:00:00,
2013-09-24 23:01:00,49.5,48.7,29.89,SW,225,0.0,0.0,97,0.00,,---,0.51,0.00,VWS V14.01,2013-09-25 06:01:00,
2013-09-24 23:06:00,49.5,48.7,29.90,SW,225,0.0,0.0,97,0.00,,---,0.51,0.00,VWS V14.01,2013-09-25 06:06:00,
2013-09-24 23:10:00,49.2,48.4,29.90,SW,225,0.0,2.0,97,0.00,,---,0.51,0.00,VWS V14.01,2013-09-25 06:10:00,
2013-09-24 23:11:00,49.6,48.8,29.89,SW,225,0.0,0.0,97,0.00,,---,0.51,0.00,VWS V14.01,2013-09-25 06:11:00,
2013-09-24 23:16:00,49.6,48.8,29.89,SW,225,0.0,2.0,97,0.00,,---,0.51,0.00,VWS V14.01,2013-09-25 06:16:00,
2013-09-24 23:20:00,49.2,48.4,29.90,SW,225,0.0,3.0,97,0.00,,---,0.51,0.00,VWS V14.01,2013-09-25 06:20:00,
2013-09-24 23:21:00,49.7,48.9,29.89,SW,225,0.0,0.0,97,0.00,,---,0.51,0.00,VWS V14.01,2013-09-25 06:21:00,
2013-09-24 23:26:00,49.7,48.9,29.89,SW,225,0.0,0.0,97,0.00,,---,0.51,0.00,VWS V14.01,2013-09-25 06:26:00,
2013-09-24 23:30:00,49.3,48.5,29.90,SW,225,0.0,3.0,97,0.00,,---,0.51,0.00,VWS V14.01,2013-09-25 06:30:00,
2013-09-24 23:31:00,49.8,49.0,29.89,SW,225,0.0,0.0,97,0.00,,---,0.51,0.00,VWS V14.01,2013-09-25 06:31:00,
2013-09-24 23:36:00,49.8,49.0,29.89,SW,225,0.0,0.0,97,0.00,,---,0.51,0.00,VWS V14.01,2013-09-25 06:36:00,
2013-09-24 23:40:00,49.4,48.6,29.90,SW,225,0.0,4.0,97,0.00,,---,0.51,0.00,VWS V14.01,2013-09-25 06:40:00,
2013-09-24 23:41:00,49.8,49.0,29.89,SW,225,0.0,0.0,97,0.00,,---,0.51,0.00,VWS V14.01,2013-09-25 06:41:00,
2013-09-24 23:46:00,49.8,49.0,29.89,SW,225,0.0,3.0,97,0.00,,---,0.51,0.00,VWS V14.01,2013-09-25 06:46:00,
2013-09-24 23:50:00,49.4,48.6,29.90,SW,225,0.0,3.0,97,0.00,,---,0.51,0.00,VWS V14.01,2013-09-25 06:50:00,
2013-09-24 23:51:00,49.8,49.0,29.89,SW,225,0.0,0.0,97,0.00,,---,0.51,0.00,VWS V14.01,2013-09-25 06:51:00,
2013-09-24 23:56:00,49.8,49.0,29.89,SW,225,0.0,3.0,97,0.00,,---,0.51,0.00,VWS V14.01,2013-09-25 06:56:00,